Ana Sayfa
METAR-TAF:

METAR-TAF

Havaalanları :

Watauga County Hospital Heliport

Boone, Kuzey Carolina, Amerika Birleşik Devletleri

Enlem: 36-12N, Boylam: 081-39W, yükseklik: 959 m

Güncel hava durumu gözlemi

Rapor saat 10:35 UTC de 23 dakika önce yapıldı.
Sakin rüzgar
Sıcaklık 21°C
Nem 88%
Basınç 1019 hPa
Görüş mesafesi: 16.1 km
Açık gökyüzü

METAR: KTNB 221035Z AUTO 00000KT 10SM CLR 21/19 A3010 RMK AO2 T02050188

Saat: 06:58 (10:58 UTC)


TAF: eksik

4.000'den fazla havaalanı için hava durumu gözlemleri ve tahminleri (METAR ve TAF raporları).

Kullanılabilir istasyonlar harita üzerinde sarı ve kırmızı noktalarla gösterilir.

İstasyonun adını görmek için fareyi noktanın üzerinde gezdirin.

Sonrasında hava gözlem ve tahminlerini görmek için tıklayın.

Haritayı değiştirmek için: yaklaştırmak için siyah artı işaretli yeşil düğmeye ve uzaklaştırmak için de eksi işaretli düğmeye hızla tıklayın; bitişik haritalar için yeşil okları kullanın.


METAR-TAF: